Impacts TAF Board INFO
FOR SITUATIONAL AWARENESS. NOT TO BE USED FOR FLIGHT PLANNING PURPOSES.
IDs:

KLAX - Los Angeles Intl, CA, US

Issued at 0316 UTC 22 Nov 2017
Updated at 0351 UTC 22 Nov 2017
Potential Impact None Slight Moderate High
Time0253Z 22/04Z 22/05Z 22/06Z 22/07Z 22/08Z 22/09Z 22/10Z 22/11Z 22/12Z 22/13Z 22/14Z 22/15Z 22/16Z>>
Type OBS PRVL PRVL PRVL PRVL PRVL PRVL PRVL PRVL PRVL PRVL PRVL PRVL PRVL
VIS 10 >6 >6 >6 >6 >6 >6 >6 >6 >6 >6 >6 >6 >6
CIG -- -- -- -- -- -- -- -- -- -- -- -- -- --
Cover CLR SKC SKC SKC SKC SKC SKC SKC SKC SKC SKC SKC SKC SKC
FltCat VFR VFR VFR VFR VFR VFR VFR VFR VFR VFR VFR VFR VFR VFR
WX -- -- -- -- -- -- -- -- -- -- -- -- -- --
WDir VRB VRB VRB VRB VRB VRB VRB VRB VRB VRB VRB 50 50 50
WSpd 0 3 3 3 3 3 3 3 3 3 3 6 6 6
WGst -- -- -- -- -- -- -- -- -- -- -- -- -- --

Raw TAF
KLAX 220316Z 2203/2306 VRB03KT P6SM SKC
  FM221400 05006KT P6SM SKC
  FM222100 27008KT P6SM SKC
  FM230500 VRB03KT P6SM SKC


Raw METAR
KLAX 220253Z 00000KT 10SM CLR 21/13 A3002 RMK AO2 SLP165 T02060128 52006
KLAX 220153Z 27003KT 10SM FEW250 20/14 A3002 RMK AO2 SLP164 T02000139
KLAX 220053Z 25007KT 10SM FEW250 20/12 A3001 RMK AO2 SLP162 T02000122

METAR Board
Radar Display
Forecast Discussion

FOR SITUATIONAL AWARENESS. NOT TO BE USED FOR FLIGHT PLANNING PURPOSES.